createdAt,value
2018-09-11T00:01:03.679Z,101598.40
2018-09-11T00:03:32.647Z,101602.05
2018-09-11T00:06:01.776Z,101604.11
2018-09-11T00:08:30.878Z,101609.75
2018-09-11T00:11:00.170Z,101611.14
2018-09-11T00:13:29.459Z,101619.47
2018-09-11T00:15:59.610Z,101608.17
2018-09-11T00:18:28.877Z,101617.69
2018-09-11T00:20:58.560Z,101612.33
2018-09-11T00:23:28.157Z,101616.74
2018-09-11T00:25:57.373Z,101618.35
2018-09-11T00:28:26.479Z,101617.88
2018-09-11T00:30:55.759Z,101616.81
2018-09-11T00:33:25.223Z,101623.09
2018-09-11T00:35:54.223Z,101629.06
2018-09-11T00:38:23.166Z,101623.08
2018-09-11T00:40:52.375Z,101630.31
2018-09-11T00:43:21.449Z,101623.77
2018-09-11T00:45:51.147Z,101617.28
2018-09-11T00:48:21.487Z,101619.27
2018-09-11T00:50:50.612Z,101613.95
2018-09-11T00:53:20.841Z,101615.45
2018-09-11T00:55:51.089Z,101610.41
2018-09-11T00:58:20.330Z,101604.52
2018-09-11T01:00:49.698Z,101607.45
2018-09-11T01:03:19.750Z,101607.00
2018-09-11T01:05:48.855Z,101613.51
2018-09-11T01:08:18.173Z,101606.00
2018-09-11T01:10:47.862Z,101612.09
2018-09-11T01:13:17.646Z,101603.53
2018-09-11T01:15:47.726Z,101599.06
2018-09-11T01:18:21.927Z,101602.31
2018-09-11T01:20:51.203Z,101622.45
2018-09-11T01:23:20.943Z,101619.92
2018-09-11T01:25:50.403Z,101623.66
2018-09-11T01:28:19.546Z,101623.80
2018-09-11T01:30:48.793Z,101632.30
2018-09-11T01:33:18.002Z,101630.94
2018-09-11T01:35:47.048Z,101628.73
2018-09-11T01:38:16.595Z,101622.45
2018-09-11T01:40:45.819Z,101621.44
2018-09-11T01:43:15.124Z,101615.25
2018-09-11T01:45:44.817Z,101619.89
2018-09-11T01:48:13.910Z,101619.72
2018-09-11T01:50:43.673Z,101603.67
2018-09-11T01:53:12.754Z,101600.91
2018-09-11T01:55:42.012Z,101601.93
2018-09-11T01:58:11.392Z,101600.25
2018-09-11T02:00:40.843Z,101606.73
2018-09-11T02:03:10.297Z,101609.92
2018-09-11T02:05:39.393Z,101599.36
2018-09-11T02:08:09.163Z,101604.89
2018-09-11T02:10:38.642Z,101608.97
2018-09-11T02:13:08.674Z,101596.64
2018-09-11T02:15:38.819Z,101596.97
2018-09-11T02:18:07.994Z,101593.98
2018-09-11T02:20:37.542Z,101595.58
2018-09-11T02:23:06.979Z,101602.20
2018-09-11T02:25:36.633Z,101597.73
2018-09-11T02:28:06.184Z,101593.13
2018-09-11T02:30:35.303Z,101586.56
2018-09-11T02:33:04.570Z,101592.91
2018-09-11T02:35:34.102Z,101585.67
2018-09-11T02:38:03.377Z,101589.17
2018-09-11T02:40:32.907Z,101592.10
2018-09-11T02:43:03.466Z,101598.08
2018-09-11T02:45:32.547Z,101591.05
2018-09-11T02:48:01.605Z,101597.73
2018-09-11T02:50:30.748Z,101595.00
2018-09-11T02:53:00.206Z,101588.31
2018-09-11T02:55:30.478Z,101597.84
2018-09-11T02:57:59.703Z,101599.17
2018-09-11T03:00:28.934Z,101598.80
2018-09-11T03:02:59.063Z,101595.59
2018-09-11T03:05:28.566Z,101594.25
2018-09-11T03:07:58.318Z,101589.42
2018-09-11T03:10:27.815Z,101597.89
2018-09-11T03:12:57.172Z,101601.18
2018-09-11T03:15:26.372Z,101601.55
2018-09-11T03:17:55.875Z,101600.39
2018-09-11T03:20:25.100Z,101601.55
2018-09-11T03:22:54.519Z,101608.17
2018-09-11T03:25:24.002Z,101611.16
2018-09-11T03:27:53.879Z,101617.88
2018-09-11T03:30:23.400Z,101619.66
2018-09-11T03:32:53.532Z,101615.34
2018-09-11T03:35:23.029Z,101621.30
2018-09-11T03:37:52.806Z,101625.45
2018-09-11T03:40:22.305Z,101631.13
2018-09-11T03:42:51.812Z,101628.26
2018-09-11T03:45:21.702Z,101627.91
2018-09-11T03:47:51.744Z,101631.92
2018-09-11T03:50:21.311Z,101625.89
2018-09-11T03:52:50.562Z,101636.41
2018-09-11T03:55:20.162Z,101625.92
2018-09-11T03:57:49.585Z,101629.73
2018-09-11T04:00:18.944Z,101623.16
2018-09-11T04:02:49.247Z,101629.94
2018-09-11T04:05:18.832Z,101629.15
2018-09-11T04:07:48.656Z,101635.14
2018-09-11T04:10:18.756Z,101634.63
2018-09-11T04:12:48.281Z,101633.94
2018-09-11T04:15:17.783Z,101628.25
2018-09-11T04:17:47.720Z,101631.20
2018-09-11T04:20:17.183Z,101630.28
2018-09-11T04:22:46.731Z,101635.31
2018-09-11T04:25:16.211Z,101626.34
2018-09-11T04:27:46.171Z,101622.84
2018-09-11T04:30:15.439Z,101629.63
2018-09-11T04:32:44.902Z,101637.91
2018-09-11T04:35:14.729Z,101628.59
2018-09-11T04:37:44.386Z,101633.36
2018-09-11T04:40:14.076Z,101634.52
2018-09-11T04:42:43.585Z,101623.45
2018-09-11T04:45:13.330Z,101632.40
2018-09-11T04:47:42.956Z,101628.53
2018-09-11T04:50:12.490Z,101623.97
2018-09-11T04:52:41.999Z,101636.16
2018-09-11T04:55:11.736Z,101628.14
2018-09-11T04:57:41.795Z,101628.93
2018-09-11T05:00:11.322Z,101630.65
2018-09-11T05:02:41.822Z,101625.95
2018-09-11T05:05:11.351Z,101626.16
2018-09-11T05:07:40.906Z,101634.52
2018-09-11T05:10:10.343Z,101631.64
2018-09-11T05:12:39.839Z,101625.47
2018-09-11T05:15:09.363Z,101624.04
2018-09-11T05:17:39.357Z,101629.38
2018-09-11T05:20:09.873Z,101624.52
2018-09-11T05:22:39.706Z,101624.04
2018-09-11T05:25:09.229Z,101630.37
2018-09-11T05:27:38.976Z,101632.88
2018-09-11T05:30:08.683Z,101630.41
2018-09-11T05:32:38.783Z,101632.64
2018-09-11T05:35:08.299Z,101636.82
2018-09-11T05:37:37.810Z,101635.69
2018-09-11T05:40:07.340Z,101635.38
2018-09-11T05:42:36.808Z,101630.83
2018-09-11T05:45:06.790Z,101622.81
2018-09-11T05:47:36.207Z,101636.41
2018-09-11T05:50:06.146Z,101638.81
2018-09-11T05:52:35.406Z,101636.55
2018-09-11T05:55:04.999Z,101647.92
2018-09-11T05:57:34.417Z,101641.72
2018-09-11T06:00:04.317Z,101632.71
2018-09-11T06:02:34.527Z,101630.89
2018-09-11T06:05:04.119Z,101625.41
2018-09-11T06:07:34.126Z,101633.87
2018-09-11T06:10:03.837Z,101634.34
2018-09-11T06:12:33.771Z,101635.20
2018-09-11T06:15:03.286Z,101630.72
2018-09-11T06:17:33.866Z,101640.24
2018-09-11T06:20:03.934Z,101638.91
2018-09-11T06:22:34.038Z,101638.77
2018-09-11T06:25:03.509Z,101621.09
2018-09-11T06:27:34.001Z,101639.83
2018-09-11T06:30:04.415Z,101639.99
2018-09-11T06:32:34.342Z,101642.63
2018-09-11T06:35:04.195Z,101643.63
2018-09-11T06:37:33.906Z,101644.95
2018-09-11T06:40:03.638Z,101650.67
2018-09-11T06:42:33.931Z,101641.17
2018-09-11T06:45:03.875Z,101639.90
2018-09-11T06:47:33.759Z,101639.73
2018-09-11T06:50:03.161Z,101636.77
2018-09-11T06:52:32.989Z,101639.67
2018-09-11T06:55:02.526Z,101637.88
2018-09-11T06:57:32.399Z,101639.76
2018-09-11T07:00:01.917Z,101641.09
2018-09-11T07:02:31.403Z,101633.48
2018-09-11T07:05:01.505Z,101642.44
2018-09-11T07:07:31.916Z,101638.84
2018-09-11T07:10:01.830Z,101649.12
2018-09-11T07:12:31.094Z,101644.80
2018-09-11T07:15:00.319Z,101639.64
2018-09-11T07:17:29.870Z,101643.30
2018-09-11T07:19:59.994Z,101644.92
2018-09-11T07:22:29.845Z,101647.11
2018-09-11T07:25:00.503Z,101635.73
2018-09-11T07:27:30.132Z,101639.69
2018-09-11T07:29:59.618Z,101635.07
2018-09-11T07:32:29.220Z,101636.04
2018-09-11T07:34:59.224Z,101634.77
2018-09-11T07:37:29.389Z,101635.47
2018-09-11T07:39:59.311Z,101639.22
2018-09-11T07:42:29.016Z,101635.94
2018-09-11T07:44:58.271Z,101643.25
2018-09-11T07:47:28.042Z,101642.38
2018-09-11T07:49:58.318Z,101643.74
2018-09-11T07:52:28.613Z,101645.36
2018-09-11T07:54:58.776Z,101645.38
2018-09-11T07:57:28.863Z,101643.28
2018-09-11T07:59:58.647Z,101643.27
2018-09-11T08:02:28.130Z,101655.34
2018-09-11T08:04:57.622Z,101654.31
2018-09-11T08:07:27.573Z,101650.45
2018-09-11T08:09:56.850Z,101648.27
2018-09-11T08:12:26.131Z,101656.70
2018-09-11T08:14:55.632Z,101656.84
2018-09-11T08:17:25.593Z,101653.52
2018-09-11T08:19:55.458Z,101655.42
2018-09-11T08:22:25.222Z,101650.86
2018-09-11T08:24:54.694Z,101646.65
2018-09-11T08:27:23.927Z,101649.33
2018-09-11T08:29:53.561Z,101643.45
2018-09-11T08:32:22.975Z,101649.70
2018-09-11T08:34:53.027Z,101647.61
2018-09-11T08:37:22.422Z,101648.05
2018-09-11T08:39:51.723Z,101643.86
2018-09-11T08:42:21.086Z,101632.32
2018-09-11T08:44:50.837Z,101648.83
2018-09-11T08:47:20.700Z,101645.93
2018-09-11T08:49:49.960Z,101648.42
2018-09-11T08:52:19.495Z,101646.48
2018-09-11T08:54:49.851Z,101639.91
2018-09-11T08:57:20.287Z,101652.34
2018-09-11T08:59:50.263Z,101599.59
2018-09-11T09:02:19.947Z,101645.30
2018-09-11T09:04:49.846Z,101649.45
2018-09-11T09:07:19.736Z,101640.01
2018-09-11T09:09:49.373Z,101640.37
2018-09-11T09:12:19.451Z,101645.91
2018-09-11T09:14:49.246Z,101641.33
2018-09-11T09:17:18.789Z,101640.16
2018-09-11T09:19:49.197Z,101634.48
2018-09-11T09:22:18.926Z,101630.01
2018-09-11T09:24:49.596Z,101627.70
2018-09-11T09:27:19.369Z,101625.50
2018-09-11T09:29:49.256Z,101615.32
2018-09-11T09:32:19.184Z,101622.82
2018-09-11T09:34:48.669Z,101609.86
2018-09-11T09:37:18.843Z,101617.85
2018-09-11T09:39:48.187Z,101612.92
2018-09-11T09:42:18.785Z,101608.20
2018-09-11T09:44:48.372Z,101603.41
2018-09-11T09:47:17.778Z,101615.02
2018-09-11T09:49:47.274Z,101601.89
2018-09-11T09:52:16.634Z,101594.23
2018-09-11T09:54:46.058Z,101599.33
2018-09-11T09:57:15.627Z,101594.77
2018-09-11T09:59:45.139Z,101593.31
2018-09-11T10:02:19.918Z,101584.28
2018-09-11T10:04:49.488Z,101574.50
2018-09-11T10:07:20.223Z,101565.80
2018-09-11T10:09:49.773Z,101559.77
2018-09-11T10:12:19.384Z,101555.54
2018-09-11T10:14:48.915Z,101559.92
2018-09-11T10:17:18.820Z,101553.37
2018-09-11T10:19:48.314Z,101547.80
2018-09-11T10:22:18.235Z,101548.34
2018-09-11T10:24:47.719Z,101553.70
2018-09-11T10:27:17.450Z,101548.02
2018-09-11T10:29:47.751Z,101547.27
2018-09-11T10:32:17.362Z,101550.67
2018-09-11T10:34:47.224Z,101557.36
2018-09-11T10:37:16.863Z,101550.55
2018-09-11T10:39:46.615Z,101551.17
2018-09-11T10:42:17.299Z,101543.32
2018-09-11T10:44:46.859Z,101548.80
2018-09-11T10:47:16.354Z,101542.44
2018-09-11T10:49:46.524Z,101536.64
2018-09-11T10:52:16.204Z,101528.34
2018-09-11T10:54:45.490Z,101522.69
2018-09-11T10:57:15.181Z,101521.16
2018-09-11T10:59:45.710Z,101517.25
2018-09-11T11:02:15.384Z,101514.80
2018-09-11T11:04:44.652Z,101503.34
2018-09-11T11:07:14.265Z,101497.98
2018-09-11T11:09:44.180Z,101512.02
2018-09-11T11:12:14.137Z,101512.93
2018-09-11T11:14:44.190Z,101505.71
2018-09-11T11:17:13.770Z,101500.31
2018-09-11T11:19:43.315Z,101503.92
2018-09-11T11:22:12.955Z,101496.75
2018-09-11T11:24:42.370Z,101492.52
2018-09-11T11:27:12.368Z,101492.59
2018-09-11T11:29:41.643Z,101483.19
2018-09-11T11:32:11.328Z,101482.09
2018-09-11T11:34:41.068Z,101479.84
2018-09-11T11:37:10.624Z,101476.41
2018-09-11T11:39:40.044Z,101478.17
2018-09-11T11:42:10.011Z,101483.32
2018-09-11T11:44:40.235Z,101473.72
2018-09-11T11:47:09.755Z,101476.83
2018-09-11T11:49:39.330Z,101475.49
2018-09-11T11:52:08.607Z,101456.08
2018-09-11T11:54:38.088Z,101461.13
2018-09-11T11:57:08.279Z,101449.56
2018-09-11T11:59:38.099Z,101454.23
2018-09-11T12:02:07.533Z,101452.86
2018-09-11T12:04:36.907Z,101458.02
2018-09-11T12:07:06.859Z,101461.16
2018-09-11T12:09:36.347Z,101455.02
2018-09-11T12:12:06.274Z,101440.84
2018-09-11T12:14:36.408Z,101437.86
2018-09-11T12:17:06.746Z,101450.83
2018-09-11T12:19:36.404Z,101452.91
2018-09-11T12:22:07.115Z,101457.86
2018-09-11T12:24:36.630Z,101464.98
2018-09-11T12:27:06.527Z,101449.75
2018-09-11T12:29:35.973Z,101445.04
2018-09-11T12:32:05.494Z,101447.45
2018-09-11T12:34:35.286Z,101441.78
2018-09-11T12:37:05.398Z,101437.97
2018-09-11T12:39:35.274Z,101439.05
2018-09-11T12:42:04.815Z,101432.84
2018-09-11T12:44:34.966Z,101441.80
2018-09-11T12:47:05.284Z,101431.13
2018-09-11T12:49:34.991Z,101433.28
2018-09-11T12:52:04.498Z,101424.27
2018-09-11T12:54:34.045Z,101417.72
2018-09-11T12:57:03.895Z,101423.66
2018-09-11T12:59:33.431Z,101415.78
2018-09-11T13:02:03.610Z,101420.63
2018-09-11T13:04:33.855Z,101415.14
2018-09-11T13:07:03.560Z,101419.81
2018-09-11T13:09:33.125Z,101408.45
2018-09-11T13:12:02.335Z,101411.86
2018-09-11T13:14:32.480Z,101405.98
2018-09-11T13:17:01.970Z,101403.75
2018-09-11T13:19:31.547Z,101393.55
2018-09-11T13:22:00.811Z,101383.41
2018-09-11T13:24:30.603Z,101391.54
2018-09-11T13:27:00.163Z,101382.97
2018-09-11T13:29:29.747Z,101381.73
2018-09-11T13:31:59.229Z,101376.89
2018-09-11T13:34:29.533Z,101379.25
2018-09-11T13:36:59.258Z,101375.87
2018-09-11T13:39:28.952Z,101381.30
2018-09-11T13:41:58.471Z,101375.54
2018-09-11T13:44:28.186Z,101367.58
2018-09-11T13:46:57.792Z,101369.84
2018-09-11T13:49:27.640Z,101365.99
2018-09-11T13:51:56.888Z,101376.63
2018-09-11T13:54:26.683Z,101381.05
2018-09-11T13:56:57.251Z,101377.03
2018-09-11T13:59:27.670Z,101370.92
2018-09-11T14:01:57.610Z,101372.14
2018-09-11T14:04:27.498Z,101366.64
2018-09-11T14:06:57.018Z,101361.55
2018-09-11T14:09:26.890Z,101371.79
2018-09-11T14:11:56.246Z,101355.34
2018-09-11T14:14:25.902Z,101353.25
2018-09-11T14:16:55.479Z,101348.32
2018-09-11T14:19:24.916Z,101352.88
2018-09-11T14:21:54.455Z,101354.44
2018-09-11T14:24:23.930Z,101353.85
2018-09-11T14:26:53.725Z,101349.18
2018-09-11T14:29:23.795Z,101343.16
2018-09-11T14:31:53.286Z,101348.89
2018-09-11T14:34:23.540Z,101335.34
2018-09-11T14:36:52.936Z,101336.41
2018-09-11T14:39:22.423Z,101338.65
2018-09-11T14:41:51.934Z,101351.00
2018-09-11T14:44:21.800Z,101343.52
2018-09-11T14:46:51.411Z,101348.63
2018-09-11T14:49:21.078Z,101340.42
2018-09-11T14:51:50.665Z,101338.95
2018-09-11T14:54:20.063Z,101342.39
2018-09-11T14:56:49.520Z,101337.36
2018-09-11T14:59:20.103Z,101326.23
2018-09-11T15:01:49.583Z,101332.97
2018-09-11T15:04:19.587Z,101326.08
2018-09-11T15:06:49.239Z,101322.84
2018-09-11T15:09:19.242Z,101325.02
2018-09-11T15:11:48.613Z,101324.49
2018-09-11T15:14:19.178Z,101327.10
2018-09-11T15:16:49.091Z,101316.08
2018-09-11T15:19:19.003Z,101323.12
2018-09-11T15:21:48.493Z,101311.20
2018-09-11T15:24:18.593Z,101315.95
2018-09-11T15:26:48.602Z,101316.80
2018-09-11T15:29:17.844Z,101313.76
2018-09-11T15:31:48.130Z,101318.50
2018-09-11T15:34:17.682Z,101313.66
2018-09-11T15:36:47.161Z,101314.38
2018-09-11T15:39:16.948Z,101309.25
2018-09-11T15:41:47.009Z,101311.05
2018-09-11T15:44:16.719Z,101305.03
2018-09-11T15:46:45.996Z,101304.91
2018-09-11T15:49:15.525Z,101304.61
2018-09-11T15:51:44.803Z,101299.52
2018-09-11T15:54:15.238Z,101299.91
2018-09-11T15:56:45.260Z,101298.91
2018-09-11T15:59:14.958Z,101288.78
2018-09-11T16:01:44.534Z,101297.39
2018-09-11T16:04:15.442Z,101288.55
2018-09-11T16:06:45.174Z,101287.83
2018-09-11T16:09:15.276Z,101285.91
2018-09-11T16:11:45.112Z,101280.45
2018-09-11T16:14:14.894Z,101283.17
2018-09-11T16:16:44.307Z,101284.73
2018-09-11T16:19:13.719Z,101282.83
2018-09-11T16:21:43.425Z,101282.28
2018-09-11T16:24:13.497Z,101282.20
2018-09-11T16:26:43.725Z,101276.47
2018-09-11T16:29:13.845Z,101277.68
2018-09-11T16:31:44.271Z,101271.94
2018-09-11T16:34:14.225Z,101274.55
2018-09-11T16:36:43.732Z,101271.73
2018-09-11T16:39:13.632Z,101272.76
2018-09-11T16:41:43.056Z,101278.28
2018-09-11T16:44:12.614Z,101272.50
2018-09-11T16:46:42.665Z,101266.80
2018-09-11T16:49:12.529Z,101270.92
2018-09-11T16:51:42.350Z,101269.15
2018-09-11T16:54:11.896Z,101274.66
2018-09-11T16:56:41.739Z,101265.44
2018-09-11T16:59:11.344Z,101270.02
2018-09-11T17:01:40.782Z,101269.16
2018-09-11T17:04:10.831Z,101268.55
2018-09-11T17:06:40.375Z,101266.12
2018-09-11T17:09:10.617Z,101270.76
2018-09-11T17:11:39.852Z,101271.96
2018-09-11T17:14:09.360Z,101275.14
2018-09-11T17:16:38.844Z,101276.25
2018-09-11T17:19:08.152Z,101273.76
2018-09-11T17:21:38.050Z,101277.89
2018-09-11T17:24:07.771Z,101273.55
2018-09-11T17:26:37.626Z,101281.45
2018-09-11T17:29:07.067Z,101279.95
2018-09-11T17:31:36.508Z,101280.84
2018-09-11T17:34:05.827Z,101284.23
2018-09-11T17:36:35.719Z,101293.50
2018-09-11T17:39:08.669Z,101295.34
2018-09-11T17:41:38.931Z,101291.04
2018-09-11T17:44:08.343Z,101285.53
2018-09-11T17:46:38.351Z,101298.44
2018-09-11T17:49:07.765Z,101303.28
2018-09-11T17:51:37.855Z,101306.35
2018-09-11T17:54:07.202Z,101306.16
2018-09-11T17:56:36.472Z,101306.73
2018-09-11T17:59:06.337Z,101308.73
2018-09-11T18:01:35.658Z,101309.39
2018-09-11T18:04:05.126Z,101308.05
2018-09-11T18:06:34.680Z,101320.11
2018-09-11T18:09:05.259Z,101327.33
2018-09-11T18:11:34.758Z,101331.34
2018-09-11T18:14:04.591Z,101331.77
2018-09-11T18:16:34.583Z,101292.64
2018-09-11T18:19:03.828Z,101343.38
2018-09-11T18:21:33.536Z,101343.78
2018-09-11T18:24:03.275Z,101346.27
2018-09-11T18:26:32.808Z,101354.95
2018-09-11T18:29:02.842Z,101362.52
2018-09-11T18:31:32.567Z,101362.47
2018-09-11T18:34:02.079Z,101361.36
2018-09-11T18:36:31.830Z,101364.86
2018-09-11T18:39:01.719Z,101358.73
2018-09-11T18:41:31.215Z,101367.39
2018-09-11T18:44:00.738Z,101369.91
2018-09-11T18:46:30.593Z,101369.17
2018-09-11T18:49:00.312Z,101369.47
2018-09-11T18:51:29.946Z,101380.70
2018-09-11T18:53:59.346Z,101380.95
2018-09-11T18:56:28.876Z,101381.33
2018-09-11T18:58:58.186Z,101381.68
2018-09-11T19:01:27.691Z,101390.23
2018-09-11T19:03:58.227Z,101388.22
2018-09-11T19:06:27.624Z,101388.69
2018-09-11T19:08:57.014Z,101390.30
2018-09-11T19:11:26.290Z,101391.13
2018-09-11T19:13:55.603Z,101386.55
2018-09-11T19:16:25.135Z,101394.21
2018-09-11T19:18:54.826Z,101393.89
2018-09-11T19:21:24.160Z,101392.99
2018-09-11T19:23:53.601Z,101405.82
2018-09-11T19:26:23.313Z,101403.08
2018-09-11T19:28:53.899Z,101403.81
2018-09-11T19:31:24.155Z,101405.97
2018-09-11T19:33:53.722Z,101396.58
2018-09-11T19:36:23.245Z,101386.88
2018-09-11T19:38:52.851Z,101387.13
2018-09-11T19:41:22.229Z,101390.96
2018-09-11T19:43:51.703Z,101389.05
2018-09-11T19:46:21.220Z,101392.66
2018-09-11T19:48:50.698Z,101379.98
2018-09-11T19:51:21.010Z,101392.83
2018-09-11T19:53:50.535Z,101392.73
2018-09-11T19:56:24.561Z,101396.73
2018-09-11T19:58:54.101Z,101389.56
2018-09-11T20:01:23.827Z,101390.14
2018-09-11T20:03:53.272Z,101391.95
2018-09-11T20:06:22.791Z,101392.14
2018-09-11T20:08:52.285Z,101386.61
2018-09-11T20:11:21.803Z,101386.91
2018-09-11T20:13:51.503Z,101382.17
2018-09-11T20:16:20.727Z,101381.19
2018-09-11T20:18:50.553Z,101384.47
2018-09-11T20:21:20.016Z,101395.05
2018-09-11T20:23:49.330Z,101387.98
2018-09-11T20:26:19.020Z,101398.77
2018-09-11T20:28:49.161Z,101394.95
2018-09-11T20:31:19.501Z,101402.27
2018-09-11T20:33:48.984Z,101402.37
2018-09-11T20:36:18.915Z,101398.75
2018-09-11T20:38:49.365Z,101405.45
2018-09-11T20:41:19.249Z,101398.25
2018-09-11T20:43:48.631Z,101396.63
2018-09-11T20:46:17.887Z,101396.66
2018-09-11T20:48:47.474Z,101400.31
2018-09-11T20:51:17.114Z,101406.41
2018-09-11T20:53:47.015Z,101401.62
2018-09-11T20:56:16.356Z,101406.41
2018-09-11T20:58:46.720Z,101398.08
2018-09-11T21:01:16.659Z,101401.39
2018-09-11T21:03:47.147Z,101397.17
2018-09-11T21:06:17.198Z,101399.02
2018-09-11T21:08:46.904Z,101404.21
2018-09-11T21:11:16.794Z,101400.41
2018-09-11T21:13:46.807Z,101399.05
2018-09-11T21:16:16.751Z,101405.69
2018-09-11T21:18:46.938Z,101403.05
2018-09-11T21:21:16.738Z,101404.72
2018-09-11T21:23:47.043Z,101410.07
2018-09-11T21:26:16.307Z,101406.66
2018-09-11T21:28:46.840Z,101413.91
2018-09-11T21:31:16.079Z,101408.51
2018-09-11T21:33:47.383Z,101409.94
2018-09-11T21:36:17.000Z,101412.23
2018-09-11T21:38:46.791Z,101408.86
2018-09-11T21:41:16.374Z,101410.20
2018-09-11T21:43:46.793Z,101407.11
2018-09-11T21:46:16.842Z,101411.02
2018-09-11T21:48:46.830Z,101411.33
2018-09-11T21:51:17.199Z,101403.00
2018-09-11T21:53:46.643Z,101406.77
2018-09-11T21:56:16.927Z,101402.59
2018-09-11T21:58:47.573Z,101399.57
2018-09-11T22:01:22.796Z,101403.98
2018-09-11T22:03:52.908Z,101355.02
2018-09-11T22:06:22.584Z,101401.08
2018-09-11T22:08:53.096Z,101373.22
2018-09-11T22:11:23.259Z,101405.83
2018-09-11T22:13:52.971Z,101399.48
2018-09-11T22:16:22.214Z,101407.01
2018-09-11T22:18:52.028Z,101410.70
2018-09-11T22:21:21.458Z,101409.56
2018-09-11T22:23:51.447Z,101409.81
2018-09-11T22:26:20.726Z,101404.92
2018-09-11T22:28:51.081Z,101402.23
2018-09-11T22:31:20.892Z,101402.44
2018-09-11T22:33:50.611Z,101401.45
2018-09-11T22:36:20.386Z,101401.52
2018-09-11T22:38:49.848Z,101397.05
2018-09-11T22:41:19.931Z,101402.27
2018-09-11T22:43:50.230Z,101404.53
2018-09-11T22:46:19.814Z,101406.27
2018-09-11T22:48:49.503Z,101407.15
2018-09-11T22:51:18.754Z,101408.29
2018-09-11T22:53:48.554Z,101407.97
2018-09-11T22:56:18.422Z,101404.45
2018-09-11T22:58:48.233Z,101402.58
2018-09-11T23:01:17.623Z,101405.91
2018-09-11T23:03:47.115Z,101403.72
2018-09-11T23:06:16.430Z,101397.75
2018-09-11T23:08:46.303Z,101401.16
2018-09-11T23:11:16.019Z,101402.70
2018-09-11T23:13:45.576Z,101402.11
2018-09-11T23:16:15.335Z,101393.66
2018-09-11T23:18:45.419Z,101394.73
2018-09-11T23:21:14.766Z,101394.45
2018-09-11T23:23:44.322Z,101395.28
2018-09-11T23:26:13.711Z,101391.44
2018-09-11T23:28:42.992Z,101389.47
2018-09-11T23:31:12.496Z,101388.39
2018-09-11T23:33:41.734Z,101392.48
2018-09-11T23:36:11.832Z,101387.75
2018-09-11T23:38:41.827Z,101383.77
2018-09-11T23:41:11.369Z,101390.42
2018-09-11T23:43:41.603Z,101382.56
2018-09-11T23:46:11.168Z,101387.81
2018-09-11T23:48:40.675Z,101384.30
2018-09-11T23:51:10.165Z,101384.34
2018-09-11T23:53:40.338Z,101383.84
2018-09-11T23:56:09.815Z,101386.17
2018-09-11T23:58:39.311Z,101392.74
